Time;durP1;ratioP1;P1;durP2;ratioP2;P2;SDS_P1;SDS_P2;PMS_P1;PMS_P2;Temp;Humidity;BMP_temperature;BMP_pressure;BME280_temperature;BME280_humidity;BME280_pressure;Samples;Min_cycle;Max_cycle;Signal;HPM_P1;HPM_P2
2021/04/23 00:01:17;;;;;;;0.60;0.60;;;5.10;99.90;;;;;;5072226;28;20203;-82
2021/04/23 00:03:48;;;;;;;0.60;0.60;;;5.00;99.90;;;;;;5072389;28;20281;-82
2021/04/23 00:06:19;;;;;;;0.55;0.55;;;5.00;99.90;;;;;;5072288;28;20195;-82
2021/04/23 00:08:48;;;;;;;0.60;0.60;;;5.00;99.90;;;;;;5072302;28;20737;-82
2021/04/23 00:11:15;;;;;;;0.60;0.60;;;5.00;99.90;;;;;;5072210;28;20200;-82
2021/04/23 00:13:42;;;;;;;0.60;0.60;;;5.00;99.90;;;;;;5072339;28;20203;-82
2021/04/23 00:16:11;;;;;;;0.60;0.60;;;4.90;99.90;;;;;;5071999;28;20219;-82
2021/04/23 00:18:37;;;;;;;0.50;0.50;;;4.90;99.90;;;;;;5071907;28;20930;-82
2021/04/23 00:21:06;;;;;;;0.60;0.60;;;4.90;99.90;;;;;;5072007;28;20207;-83
2021/04/23 00:23:33;;;;;;;0.60;0.60;;;4.90;99.90;;;;;;5071926;28;20254;-82
2021/04/23 00:25:59;;;;;;;0.60;0.60;;;4.90;99.90;;;;;;5071774;28;20224;-82
2021/04/23 00:28:26;;;;;;;0.60;0.60;;;4.90;99.90;;;;;;5071779;28;20584;-82
2021/04/23 00:30:53;;;;;;;0.60;0.60;;;4.90;99.90;;;;;;5071929;28;20211;-83
2021/04/23 00:33:23;;;;;;;0.60;0.60;;;4.90;99.90;;;;;;5071664;28;20208;-83
2021/04/23 00:35:50;;;;;;;0.60;0.60;;;4.90;99.90;;;;;;5071574;28;20230;-83
2021/04/23 00:38:19;;;;;;;0.50;0.50;;;4.80;99.90;;;;;;5071568;28;20212;-83
2021/04/23 00:40:51;;;;;;;0.60;0.60;;;4.80;99.90;;;;;;5071696;28;20658;-83
2021/04/23 00:43:20;;;;;;;0.60;0.60;;;4.80;99.90;;;;;;5071667;28;20622;-82
2021/04/23 00:45:48;;;;;;;0.68;0.68;;;4.90;99.90;;;;;;5071733;28;20204;-81
2021/04/23 00:48:14;;;;;;;0.63;0.63;;;4.80;99.90;;;;;;5071232;28;20238;-82
2021/04/23 00:50:45;;;;;;;0.60;0.60;;;4.90;99.90;;;;;;5071553;28;20207;-81
2021/04/23 00:53:14;;;;;;;0.60;0.60;;;4.90;99.90;;;;;;5070818;28;20264;-82
2021/04/23 00:55:40;;;;;;;0.60;0.60;;;5.10;99.90;;;;;;5071147;28;20697;-81
2021/04/23 00:58:11;;;;;;;0.60;0.60;;;4.90;99.90;;;;;;5071377;28;20230;-81
2021/04/23 01:00:39;;;;;;;0.60;0.60;;;4.90;99.90;;;;;;5071216;28;20249;-81
2021/04/23 01:03:05;;;;;;;0.60;0.60;;;4.90;99.90;;;;;;5071149;28;20207;-82
2021/04/23 01:05:34;;;;;;;0.60;0.60;;;4.90;99.90;;;;;;5071036;28;20673;-82
2021/04/23 01:08:01;;;;;;;0.60;0.60;;;4.90;99.90;;;;;;5071138;28;20226;-81
2021/04/23 01:10:28;;;;;;;0.50;0.50;;;4.90;99.90;;;;;;5070972;28;20669;-81
2021/04/23 01:12:55;;;;;;;0.60;0.60;;;4.80;99.90;;;;;;5071050;28;20203;-83
2021/04/23 01:15:23;;;;;;;0.60;0.60;;;4.80;99.90;;;;;;5070774;28;20231;-83
2021/04/23 01:17:50;;;;;;;0.60;0.60;;;4.70;99.90;;;;;;5070887;28;20631;-83
2021/04/23 01:20:16;;;;;;;0.60;0.60;;;4.70;99.90;;;;;;5070836;28;20678;-82
2021/04/23 01:22:44;;;;;;;0.60;0.60;;;4.60;99.90;;;;;;5070912;28;20207;-83
2021/04/23 01:25:12;;;;;;;0.50;0.50;;;4.70;99.90;;;;;;5070684;28;20673;-83
2021/04/23 01:27:38;;;;;;;0.60;0.60;;;4.70;99.90;;;;;;5070394;28;20592;-83
2021/04/23 01:30:07;;;;;;;0.60;0.60;;;4.70;99.90;;;;;;5070786;28;20241;-83
2021/04/23 01:32:33;;;;;;;0.60;0.60;;;4.70;99.90;;;;;;5070583;28;20309;-83
2021/04/23 01:34:59;;;;;;;0.60;0.60;;;4.70;99.90;;;;;;5070534;28;20208;-83
2021/04/23 01:37:26;;;;;;;0.60;0.60;;;4.70;99.90;;;;;;5070510;28;20626;-82
2021/04/23 01:39:56;;;;;;;0.60;0.60;;;4.60;99.90;;;;;;5070556;28;20230;-83
2021/04/23 01:42:22;;;;;;;0.60;0.60;;;4.60;99.90;;;;;;5070354;28;20203;-82
2021/04/23 01:44:49;;;;;;;0.60;0.60;;;4.50;99.90;;;;;;5070607;28;20203;-81
2021/04/23 01:47:15;;;;;;;0.60;0.60;;;4.50;99.90;;;;;;5070308;28;20605;-81
2021/04/23 01:49:41;;;;;;;0.60;0.60;;;4.50;99.90;;;;;;5070324;28;20208;-81
2021/04/23 01:52:11;;;;;;;0.50;0.50;;;4.50;99.90;;;;;;5070301;28;20207;-81
2021/04/23 01:54:38;;;;;;;0.60;0.60;;;4.50;99.90;;;;;;5070218;28;20230;-80
2021/04/23 01:57:06;;;;;;;0.60;0.60;;;4.40;99.90;;;;;;5070356;28;20265;-81
2021/04/23 01:59:34;;;;;;;0.50;0.50;;;4.40;99.90;;;;;;5070280;28;20199;-81
2021/04/23 02:02:01;;;;;;;0.60;0.60;;;4.40;99.90;;;;;;5070184;28;20573;-81
2021/04/23 02:04:28;;;;;;;0.57;0.57;;;4.50;99.90;;;;;;5069309;28;20204;-81
2021/04/23 02:06:55;;;;;;;0.60;0.60;;;4.40;99.90;;;;;;5070334;28;20203;-81
2021/04/23 02:09:21;;;;;;;0.60;0.60;;;4.50;99.90;;;;;;5070103;28;20207;-81
2021/04/23 02:11:50;;;;;;;0.60;0.60;;;4.40;99.90;;;;;;5070224;28;20210;-81
2021/04/23 02:14:18;;;;;;;0.60;0.60;;;4.40;99.90;;;;;;5070103;28;20615;-81
2021/04/23 02:16:45;;;;;;;0.60;0.60;;;4.40;99.90;;;;;;5069873;28;20219;-81
2021/04/23 02:19:13;;;;;;;0.60;0.60;;;4.40;99.90;;;;;;5070037;28;20227;-82
2021/04/23 02:21:40;;;;;;;0.60;0.60;;;4.40;99.90;;;;;;5069950;28;20249;-83
2021/04/23 02:24:07;;;;;;;0.60;0.60;;;4.40;99.90;;;;;;5069949;28;20203;-83
2021/04/23 02:26:35;;;;;;;0.60;0.60;;;4.40;99.90;;;;;;5069726;28;20223;-82
2021/04/23 02:29:01;;;;;;;0.60;0.60;;;4.40;99.90;;;;;;5070041;28;20204;-82
2021/04/23 02:31:30;;;;;;;0.60;0.60;;;4.40;99.90;;;;;;5069837;28;20215;-82
2021/04/23 02:34:00;;;;;;;0.60;0.60;;;4.50;99.90;;;;;;5069841;28;20203;-83
2021/04/23 02:36:27;;;;;;;0.60;0.60;;;4.50;99.90;;;;;;5069872;28;20227;-83
2021/04/23 02:38:54;;;;;;;0.60;0.60;;;4.60;99.90;;;;;;5069956;28;20211;-83
2021/04/23 02:41:21;;;;;;;0.60;0.60;;;4.60;99.90;;;;;;5069832;28;20207;-82
2021/04/23 02:43:50;;;;;;;0.60;0.60;;;4.60;99.90;;;;;;5069592;28;20215;-82
2021/04/23 02:46:17;;;;;;;0.52;0.52;;;4.70;99.90;;;;;;5069286;28;20240;-82
2021/04/23 02:48:45;;;;;;;0.60;0.60;;;4.80;99.90;;;;;;5069461;28;20253;-82
2021/04/23 02:51:15;;;;;;;0.60;0.60;;;4.70;99.90;;;;;;5069751;28;20199;-82
2021/04/23 02:53:41;;;;;;;0.60;0.60;;;4.90;99.90;;;;;;5069690;28;20208;-82
2021/04/23 02:56:08;;;;;;;0.60;0.60;;;4.90;99.90;;;;;;5069550;28;20227;-82
2021/04/23 02:58:35;;;;;;;0.60;0.60;;;4.90;99.90;;;;;;5069470;28;20261;-82
2021/04/23 03:01:05;;;;;;;0.60;0.60;;;4.90;99.90;;;;;;5069748;28;20206;-83
2021/04/23 03:03:32;;;;;;;0.60;0.60;;;4.90;99.90;;;;;;5069522;28;20200;-82
2021/04/23 03:05:59;;;;;;;0.60;0.60;;;4.90;99.90;;;;;;5069581;28;20200;-82
2021/04/23 03:08:26;;;;;;;0.60;0.60;;;4.90;99.90;;;;;;5069418;28;20203;-82
2021/04/23 03:10:59;;;;;;;0.60;0.60;;;4.90;99.90;;;;;;5069599;28;20204;-83
2021/04/23 03:13:27;;;;;;;0.60;0.60;;;4.90;99.90;;;;;;5069617;28;20208;-82
2021/04/23 03:15:56;;;;;;;0.60;0.60;;;4.80;99.90;;;;;;5071346;28;20227;-83
2021/04/23 03:18:25;;;;;;;0.60;0.60;;;4.80;99.90;;;;;;5073271;28;20199;-82
2021/04/23 03:20:53;;;;;;;0.60;0.60;;;4.80;99.90;;;;;;5073170;28;20658;-82
2021/04/23 03:23:20;;;;;;;0.60;0.60;;;4.70;99.90;;;;;;5073226;28;20249;-83
2021/04/23 03:25:47;;;;;;;0.60;0.60;;;4.80;99.90;;;;;;5072840;28;20224;-82
2021/04/23 03:28:13;;;;;;;0.60;0.60;;;4.80;99.90;;;;;;5073135;28;20249;-83
2021/04/23 03:30:41;;;;;;;0.60;0.60;;;4.80;99.90;;;;;;5072931;28;20264;-82
2021/04/23 03:33:09;;;;;;;0.50;0.50;;;4.80;99.90;;;;;;5072939;28;20250;-82
2021/04/23 03:35:36;;;;;;;0.60;0.60;;;4.80;99.90;;;;;;5072715;28;20227;-82
2021/04/23 03:38:04;;;;;;;0.60;0.60;;;4.80;99.90;;;;;;5072782;28;20218;-82
2021/04/23 03:40:33;;;;;;;0.60;0.60;;;4.80;99.90;;;;;;5072783;28;20208;-83
2021/04/23 03:43:00;;;;;;;0.50;0.50;;;4.90;99.90;;;;;;5072834;28;20203;-83
2021/04/23 03:45:27;;;;;;;0.60;0.60;;;4.90;99.90;;;;;;5072827;28;20640;-82
2021/04/23 03:47:54;;;;;;;0.60;0.60;;;5.00;99.90;;;;;;5072364;28;20235;-82
2021/04/23 03:50:23;;;;;;;0.57;0.57;;;5.00;99.90;;;;;;5072644;28;20376;-83
2021/04/23 03:52:51;;;;;;;0.60;0.60;;;5.00;99.90;;;;;;5072430;28;20208;-83
2021/04/23 03:55:22;;;;;;;0.60;0.60;;;5.00;99.90;;;;;;5072538;28;20257;-83
2021/04/23 03:57:49;;;;;;;0.60;0.60;;;5.10;99.90;;;;;;5072485;28;20207;-83
2021/04/23 04:00:18;;;;;;;0.50;0.50;;;5.10;99.90;;;;;;5072604;28;20662;-83
2021/04/23 04:02:44;;;;;;;0.60;0.60;;;5.10;99.90;;;;;;5072256;28;20200;-84
2021/04/23 04:05:11;;;;;;;0.60;0.60;;;5.10;99.90;;;;;;5072449;28;20666;-83
2021/04/23 04:07:38;;;;;;;0.60;0.60;;;5.50;99.90;;;;;;5072208;28;20203;-83
2021/04/23 04:10:06;;;;;;;0.60;0.60;;;5.20;99.90;;;;;;5072320;28;20195;-84
2021/04/23 04:12:32;;;;;;;0.60;0.60;;;5.20;99.90;;;;;;5072189;28;20212;-82
2021/04/23 04:14:59;;;;;;;0.60;0.60;;;5.20;99.90;;;;;;5072179;28;20265;-82
2021/04/23 04:17:25;;;;;;;0.50;0.50;;;5.20;99.90;;;;;;5072019;28;20285;-83
2021/04/23 04:19:51;;;;;;;0.55;0.55;;;5.20;99.90;;;;;;5071983;28;20779;-83
2021/04/23 04:22:18;;;;;;;0.60;0.60;;;5.20;99.90;;;;;;5072041;28;20215;-83
2021/04/23 04:24:44;;;;;;;0.60;0.60;;;5.30;99.90;;;;;;5071923;28;20836;-83
2021/04/23 04:27:10;;;;;;;0.57;0.57;;;5.30;99.90;;;;;;5070942;28;20231;-83
2021/04/23 04:29:36;;;;;;;0.60;0.60;;;5.20;99.90;;;;;;5071902;28;20673;-83
2021/04/23 04:32:04;;;;;;;0.60;0.60;;;5.30;99.90;;;;;;5071866;28;20544;-83
2021/04/23 04:34:30;;;;;;;0.60;0.60;;;5.20;99.90;;;;;;5072031;28;20712;-83
2021/04/23 04:36:56;;;;;;;0.60;0.60;;;5.30;99.90;;;;;;5071606;28;20224;-83
2021/04/23 04:39:22;;;;;;;0.60;0.60;;;5.30;99.90;;;;;;5071830;28;20207;-82
2021/04/23 04:41:48;;;;;;;0.60;0.60;;;5.30;99.90;;;;;;5071569;28;20208;-82
2021/04/23 04:44:18;;;;;;;0.60;0.60;;;5.30;99.90;;;;;;5071740;28;20199;-82
2021/04/23 04:46:44;;;;;;;0.60;0.60;;;5.20;99.90;;;;;;5071297;28;20773;-82
2021/04/23 04:49:12;;;;;;;0.50;0.50;;;5.30;99.90;;;;;;5071613;28;20207;-82
2021/04/23 04:51:38;;;;;;;0.60;0.60;;;5.30;99.90;;;;;;5071280;28;20208;-82
2021/04/23 04:54:08;;;;;;;0.60;0.60;;;5.30;99.90;;;;;;5071429;28;20284;-82
2021/04/23 04:56:34;;;;;;;0.60;0.60;;;5.30;99.90;;;;;;5071152;28;20278;-82
2021/04/23 04:59:00;;;;;;;0.60;0.60;;;5.30;99.90;;;;;;5071269;28;20578;-82
2021/04/23 05:01:26;;;;;;;0.60;0.60;;;5.30;99.90;;;;;;5071233;28;20211;-82
2021/04/23 05:03:52;;;;;;;0.60;0.60;;;5.30;99.90;;;;;;5071409;28;20658;-82
2021/04/23 05:06:21;;;;;;;0.60;0.60;;;5.40;99.90;;;;;;5071170;28;20665;-82
2021/04/23 05:08:47;;;;;;;0.60;0.60;;;5.40;99.90;;;;;;5071046;28;20218;-82
2021/04/23 05:11:13;;;;;;;0.60;0.60;;;5.40;99.90;;;;;;5071037;28;20662;-82
2021/04/23 05:13:39;;;;;;;0.60;0.60;;;5.40;99.90;;;;;;5070959;28;20203;-82
2021/04/23 05:16:06;;;;;;;0.60;0.60;;;5.50;99.90;;;;;;5071035;28;20227;-82
2021/04/23 05:18:32;;;;;;;0.60;0.60;;;5.50;99.90;;;;;;5070898;28;20211;-82
2021/04/23 05:20:58;;;;;;;0.60;0.60;;;5.50;99.90;;;;;;5070831;28;20204;-81
2021/04/23 05:23:25;;;;;;;0.60;0.60;;;5.50;99.90;;;;;;5070877;28;20786;-82
2021/04/23 05:25:52;;;;;;;0.57;0.57;;;5.60;99.90;;;;;;5070753;28;20215;-81
2021/04/23 05:28:18;;;;;;;0.57;0.57;;;5.60;99.90;;;;;;5070790;28;20208;-81
2021/04/23 05:30:44;;;;;;;0.50;0.50;;;5.60;99.90;;;;;;5070565;28;20199;-83
2021/04/23 05:33:11;;;;;;;0.60;0.60;;;5.70;99.90;;;;;;5070717;28;20203;-82
2021/04/23 05:35:39;;;;;;;0.65;0.65;;;5.80;99.90;;;;;;5070310;28;20226;-82
2021/04/23 05:38:06;;;;;;;0.60;0.60;;;6.00;99.90;;;;;;5070214;28;20257;-82
2021/04/23 05:40:36;;;;;;;0.60;0.60;;;6.10;99.90;;;;;;5070478;28;20689;-83
2021/04/23 05:43:04;;;;;;;0.60;0.60;;;6.60;99.90;;;;;;5070446;28;20360;-82
2021/04/23 05:45:31;;;;;;;0.60;0.60;;;6.50;99.90;;;;;;5070474;28;20235;-81
2021/04/23 05:47:57;;;;;;;0.60;0.60;;;6.60;99.90;;;;;;5070213;28;20288;-82
2021/04/23 05:50:24;;;;;;;0.60;0.60;;;6.60;99.90;;;;;;5070495;28;20203;-84
2021/04/23 05:52:50;;;;;;;0.60;0.60;;;6.70;99.90;;;;;;5070352;28;20211;-85
2021/04/23 05:55:19;;;;;;;0.60;0.60;;;6.80;99.90;;;;;;5070346;28;20302;-86
2021/04/23 05:57:47;;;;;;;0.60;0.60;;;6.90;99.90;;;;;;5070635;28;20203;-85
2021/04/23 06:00:18;;;;;;;0.60;0.60;;;7.00;99.90;;;;;;5076525;28;20848;-88
2021/04/23 06:02:44;;;;;;;0.60;0.60;;;7.20;99.90;;;;;;5075720;28;20207;-84
2021/04/23 06:05:12;;;;;;;0.55;0.55;;;7.00;99.90;;;;;;5078457;28;20555;-89
2021/04/23 06:07:39;;;;;;;0.60;0.60;;;7.00;99.90;;;;;;5085579;28;20256;-89
2021/04/23 06:10:10;;;;;;;0.60;0.60;;;6.90;99.90;;;;;;5090413;28;20213;-90
2021/04/23 06:12:36;;;;;;;0.60;0.60;;;7.00;99.90;;;;;;5083861;28;20203;-87
2021/04/23 06:15:05;;;;;;;0.60;0.60;;;7.00;99.90;;;;;;5083050;28;20693;-88
2021/04/23 06:17:31;;;;;;;0.60;0.60;;;7.10;99.90;;;;;;5078641;28;20452;-86
2021/04/23 06:19:58;;;;;;;0.60;0.60;;;7.10;99.90;;;;;;5073384;28;20819;-85
2021/04/23 06:22:24;;;;;;;0.60;0.60;;;7.00;99.90;;;;;;5070028;28;20207;-84
2021/04/23 06:24:51;;;;;;;0.60;0.60;;;7.10;99.90;;;;;;5070043;28;20208;-85
2021/04/23 06:27:17;;;;;;;0.60;0.60;;;6.90;99.90;;;;;;5070015;28;20223;-86
2021/04/23 06:29:44;;;;;;;0.60;0.60;;;6.90;99.90;;;;;;5069850;28;20203;-84
2021/04/23 06:32:11;;;;;;;0.60;0.60;;;6.80;99.90;;;;;;5069975;28;20261;-85
2021/04/23 06:34:37;;;;;;;0.50;0.50;;;6.70;99.90;;;;;;5069951;28;20203;-83
2021/04/23 06:37:03;;;;;;;0.60;0.60;;;6.80;99.90;;;;;;5071107;28;20602;-83
2021/04/23 06:39:30;;;;;;;0.60;0.60;;;6.80;99.90;;;;;;5070580;28;20674;-84
2021/04/23 06:41:56;;;;;;;0.60;0.60;;;6.90;99.90;;;;;;5073259;28;20231;-90
2021/04/23 06:44:22;;;;;;;0.57;0.57;;;6.90;99.90;;;;;;5074517;28;20203;-87
2021/04/23 06:46:48;;;;;;;0.60;0.60;;;6.90;99.90;;;;;;5068434;28;20234;-88
2021/04/23 06:49:18;;;;;;;0.60;0.60;;;7.00;99.90;;;;;;5073216;28;20252;-88
2021/04/23 06:51:45;;;;;;;0.60;0.60;;;7.10;99.90;;;;;;5076166;28;20199;-88
2021/04/23 06:54:15;;;;;;;0.60;0.60;;;7.20;99.90;;;;;;5076672;28;20210;-89
2021/04/23 06:56:44;;;;;;;0.60;0.60;;;7.20;99.90;;;;;;5077935;28;20312;-88
2021/04/23 06:59:11;;;;;;;0.50;0.50;;;7.10;99.90;;;;;;5075786;28;20200;-88
2021/04/23 07:01:37;;;;;;;0.60;0.60;;;7.00;99.90;;;;;;5075772;28;20207;-88
2021/04/23 07:04:05;;;;;;;0.52;0.52;;;7.00;99.90;;;;;;5076376;28;20203;-87
2021/04/23 07:06:35;;;;;;;0.60;0.60;;;6.90;99.90;;;;;;5075863;28;20199;-88
2021/04/23 07:09:02;;;;;;;0.60;0.60;;;6.70;99.90;;;;;;5075153;28;20214;-88
2021/04/23 07:11:28;;;;;;;0.50;0.50;;;6.80;99.90;;;;;;5075141;28;20548;-87
2021/04/23 07:13:54;;;;;;;0.50;0.50;;;6.90;99.90;;;;;;5075025;28;20211;-88
2021/04/23 07:16:20;;;;;;;0.60;0.60;;;6.90;99.90;;;;;;5055315;28;20786;-86
2021/04/23 07:18:47;;;;;;;0.60;0.60;;;7.00;99.90;;;;;;5053154;28;20204;-87
2021/04/23 07:21:13;;;;;;;0.50;0.50;;;7.10;99.90;;;;;;5072373;28;20196;-87
2021/04/23 07:23:40;;;;;;;0.60;0.60;;;7.20;99.90;;;;;;5073398;28;20206;-87
2021/04/23 07:26:06;;;;;;;0.60;0.60;;;7.30;99.90;;;;;;5073496;28;20736;-87
2021/04/23 07:28:32;;;;;;;0.57;0.57;;;7.30;99.90;;;;;;5073560;28;20286;-89
2021/04/23 07:30:58;;;;;;;0.60;0.60;;;7.40;99.90;;;;;;5072886;28;20207;-88
2021/04/23 07:33:25;;;;;;;0.57;0.57;;;7.40;99.90;;;;;;5074308;28;20261;-87
2021/04/23 07:35:51;;;;;;;0.60;0.60;;;7.30;99.90;;;;;;5074438;28;20720;-85
2021/04/23 07:38:17;;;;;;;0.60;0.60;;;7.30;99.90;;;;;;5075799;28;20195;-85
2021/04/23 07:40:45;;;;;;;0.55;0.55;;;7.40;99.90;;;;;;5075626;28;20207;-85
2021/04/23 07:43:11;;;;;;;0.60;0.60;;;7.40;99.90;;;;;;5074576;28;20662;-85
2021/04/23 07:45:38;;;;;;;0.60;0.60;;;7.50;99.90;;;;;;5074331;28;20200;-85
2021/04/23 07:48:05;;;;;;;0.60;0.60;;;7.60;99.90;;;;;;5074353;28;20246;-85
2021/04/23 07:50:32;;;;;;;0.60;0.60;;;7.50;99.90;;;;;;5074920;28;20206;-85
2021/04/23 07:52:58;;;;;;;0.60;0.60;;;7.60;99.90;;;;;;5075406;28;20204;-85
2021/04/23 07:55:24;;;;;;;0.50;0.50;;;7.70;99.90;;;;;;5074978;28;20215;-85
2021/04/23 07:57:55;;;;;;;0.60;0.60;;;7.80;99.90;;;;;;5073357;28;20207;-85
2021/04/23 08:00:23;;;;;;;0.52;0.52;;;7.90;99.90;;;;;;5072262;28;20252;-86
2021/04/23 08:02:53;;;;;;;0.52;0.52;;;7.90;99.90;;;;;;5070666;28;20249;-88
2021/04/23 08:05:21;;;;;;;0.60;0.60;;;8.00;99.90;;;;;;5072240;28;20207;-87
2021/04/23 08:07:47;;;;;;;0.60;0.60;;;8.00;99.90;;;;;;5072129;28;20211;-87
2021/04/23 08:10:15;;;;;;;0.60;0.60;;;8.10;99.90;;;;;;5072152;28;20276;-86
2021/04/23 08:12:46;;;;;;;0.60;0.60;;;8.10;99.90;;;;;;5067420;28;20200;-84
2021/04/23 08:15:15;;;;;;;0.60;0.60;;;8.10;99.90;;;;;;5060750;28;20261;-83
2021/04/23 08:17:41;;;;;;;0.60;0.60;;;8.30;99.90;;;;;;5060391;28;20628;-81
2021/04/23 08:20:09;;;;;;;0.60;0.60;;;8.40;99.90;;;;;;5059382;28;20670;-82
2021/04/23 08:22:45;;;;;;;0.60;0.60;;;8.40;99.90;;;;;;5063801;28;20520;-84
2021/04/23 08:25:13;;;;;;;0.50;0.50;;;8.70;99.90;;;;;;5068604;28;20673;-84
2021/04/23 08:27:39;;;;;;;0.60;0.60;;;8.60;99.90;;;;;;5066989;28;20323;-84
2021/04/23 08:30:09;;;;;;;0.60;0.60;;;8.50;99.90;;;;;;5062867;28;20200;-85
2021/04/23 08:32:36;;;;;;;0.60;0.60;;;8.50;99.90;;;;;;5060892;28;20572;-84
2021/04/23 08:35:04;;;;;;;0.60;0.60;;;8.50;99.90;;;;;;5059473;28;20200;-85
2021/04/23 08:37:30;;;;;;;0.55;0.55;;;8.60;99.90;;;;;;5061271;28;20701;-85
2021/04/23 08:39:57;;;;;;;0.57;0.57;;;8.80;99.90;;;;;;5059274;28;20201;-85
2021/04/23 08:42:23;;;;;;;0.60;0.60;;;8.80;99.90;;;;;;5059370;28;20245;-85
2021/04/23 08:44:50;;;;;;;0.60;0.60;;;8.80;99.90;;;;;;5061426;28;20200;-85
2021/04/23 08:47:20;;;;;;;0.60;0.60;;;8.70;99.90;;;;;;5058644;28;20232;-85
2021/04/23 08:49:54;;;;;;;0.50;0.50;;;8.90;99.90;;;;;;5059078;28;21196;-85
2021/04/23 08:52:20;;;;;;;0.60;0.60;;;9.10;99.90;;;;;;5060216;28;20396;-85
2021/04/23 08:54:49;;;;;;;0.60;0.60;;;9.00;99.90;;;;;;5061492;28;20675;-85
2021/04/23 08:57:16;;;;;;;0.60;0.60;;;9.00;99.90;;;;;;5069640;28;20284;-86
2021/04/23 08:59:42;;;;;;;0.60;0.60;;;9.10;99.90;;;;;;5069558;28;20253;-86
2021/04/23 09:02:08;;;;;;;0.60;0.60;;;8.90;99.90;;;;;;5064832;28;20205;-86
2021/04/23 09:04:34;;;;;;;0.50;0.50;;;8.90;99.90;;;;;;5076535;28;20205;-86
2021/04/23 09:07:02;;;;;;;0.60;0.60;;;8.90;99.90;;;;;;5067771;28;20196;-87
2021/04/23 09:09:34;;;;;;;0.60;0.60;;;8.90;99.90;;;;;;5063709;28;20673;-84
2021/04/23 09:12:03;;;;;;;0.60;0.60;;;9.10;99.90;;;;;;5057959;28;20823;-83
2021/04/23 09:14:32;;;;;;;0.60;0.60;;;9.20;99.90;;;;;;5058083;28;20203;-84
2021/04/23 09:17:00;;;;;;;0.60;0.60;;;9.10;99.90;;;;;;5065285;28;20224;-83
2021/04/23 09:19:31;;;;;;;0.60;0.60;;;9.30;99.90;;;;;;5073763;28;20665;-83
2021/04/23 09:22:01;;;;;;;0.60;0.60;;;9.30;99.90;;;;;;5055409;28;20254;-83
2021/04/23 09:24:30;;;;;;;0.50;0.50;;;9.30;99.90;;;;;;5068906;28;20199;-83
2021/04/23 09:26:58;;;;;;;0.60;0.60;;;9.50;99.90;;;;;;5069421;28;20231;-83
2021/04/23 09:29:30;;;;;;;0.55;0.55;;;9.60;99.90;;;;;;5068728;28;20683;-83
2021/04/23 09:32:08;;;;;;;0.60;0.60;;;9.70;99.90;;;;;;5069288;28;20265;-82
2021/04/23 09:34:34;;;;;;;0.60;0.60;;;9.60;99.90;;;;;;5069018;28;20195;-82
2021/04/23 09:37:00;;;;;;;0.60;0.60;;;9.70;99.90;;;;;;5067947;28;20302;-82
2021/04/23 09:39:27;;;;;;;0.52;0.52;;;9.60;99.90;;;;;;5065612;28;21889;-81
2021/04/23 09:42:02;;;;;;;0.50;0.50;;;9.60;99.90;;;;;;5088726;28;20207;-82
2021/04/23 09:44:31;;;;;;;0.60;0.60;;;9.60;99.90;;;;;;5057777;28;20254;-82
2021/04/23 09:47:00;;;;;;;0.60;0.60;;;9.80;99.90;;;;;;5052796;28;20243;-83
2021/04/23 09:49:26;;;;;;;0.60;0.60;;;9.90;99.90;;;;;;5052682;28;20693;-84
2021/04/23 09:51:53;;;;;;;0.60;0.60;;;9.90;99.90;;;;;;5060225;28;20249;-83
2021/04/23 09:54:22;;;;;;;0.60;0.60;;;9.60;99.90;;;;;;5064604;28;20654;-83
2021/04/23 09:56:49;;;;;;;0.60;0.60;;;9.70;99.90;;;;;;5069121;28;20327;-83
2021/04/23 09:59:21;;;;;;;0.60;0.60;;;9.80;99.90;;;;;;5066918;28;20214;-83
2021/04/23 10:01:52;;;;;;;0.60;0.60;;;9.90;99.90;;;;;;5069875;28;20210;-83
2021/04/23 10:04:26;;;;;;;0.60;0.60;;;10.00;99.90;;;;;;5067514;28;20203;-83
2021/04/23 10:07:07;;;;;;;0.60;0.60;;;10.00;99.90;;;;;;5069770;28;20620;-84
2021/04/23 10:09:34;;;;;;;0.60;0.60;;;10.10;99.90;;;;;;5069439;28;20203;-83
2021/04/23 10:12:00;;;;;;;0.60;0.60;;;9.90;99.90;;;;;;5069549;28;20199;-86
2021/04/23 10:14:27;;;;;;;0.57;0.57;;;10.10;99.90;;;;;;5068798;28;20210;-84
2021/04/23 10:16:58;;;;;;;0.60;0.60;;;10.20;99.90;;;;;;5063082;28;20698;-82
2021/04/23 10:19:26;;;;;;;0.60;0.60;;;10.20;99.90;;;;;;5059213;28;20562;-81
2021/04/23 10:21:52;;;;;;;0.50;0.50;;;10.30;99.90;;;;;;5066517;28;20238;-80
2021/04/23 10:24:21;;;;;;;0.60;0.60;;;10.30;99.90;;;;;;5053512;28;20200;-83
2021/04/23 10:26:47;;;;;;;0.60;0.60;;;10.50;99.90;;;;;;5070981;28;20227;-81
2021/04/23 10:29:17;;;;;;;0.57;0.57;;;10.60;99.90;;;;;;5085992;28;20199;-83
2021/04/23 10:31:44;;;;;;;0.60;0.60;;;10.50;99.90;;;;;;5072316;28;20195;-82
2021/04/23 10:34:11;;;;;;;0.60;0.60;;;10.70;99.90;;;;;;5067215;28;20195;-83
2021/04/23 10:36:38;;;;;;;0.60;0.60;;;10.70;99.90;;;;;;5053213;28;20227;-90
2021/04/23 10:39:06;;;;;;;0.57;0.57;;;10.90;99.90;;;;;;5054756;28;20220;-86
2021/04/23 10:41:37;;;;;;;0.60;0.60;;;10.90;99.90;;;;;;5069826;28;20203;-82
2021/04/23 10:44:04;;;;;;;0.60;0.60;;;11.10;99.90;;;;;;5063447;28;20713;-81
2021/04/23 10:46:31;;;;;;;0.60;0.60;;;11.30;99.90;;;;;;5068231;28;20234;-81
2021/04/23 10:49:05;;;;;;;0.60;0.60;;;11.10;99.90;;;;;;5058834;28;20230;-82
2021/04/23 10:51:32;;;;;;;0.52;0.52;;;11.10;99.90;;;;;;5049817;28;20394;-82
2021/04/23 10:54:10;;;;;;;0.60;0.60;;;11.20;99.90;;;;;;5056304;28;20269;-82
2021/04/23 10:56:37;;;;;;;0.57;0.57;;;11.20;99.90;;;;;;5067964;28;20974;-82
2021/04/23 10:59:06;;;;;;;0.60;0.60;;;11.20;99.90;;;;;;5056145;28;20200;-81
2021/04/23 11:01:37;;;;;;;0.60;0.60;;;11.40;99.90;;;;;;5077458;28;20539;-81
2021/04/23 11:04:10;;;;;;;0.60;0.60;;;11.50;99.90;;;;;;5063748;28;20200;-82
2021/04/23 11:06:38;;;;;;;0.50;0.50;;;11.40;99.90;;;;;;5049378;28;20208;-82
2021/04/23 11:09:18;;;;;;;0.60;0.60;;;11.00;99.90;;;;;;5049526;28;20619;-81
2021/04/23 11:12:12;;;;;;;0.60;0.60;;;11.10;99.90;;;;;;5050192;28;20204;-80
2021/04/23 11:14:39;;;;;;;0.60;0.60;;;11.20;99.90;;;;;;5049739;28;20713;-80
2021/04/23 11:17:32;;;;;;;0.60;0.60;;;11.40;99.90;;;;;;5049385;28;20618;-80
2021/04/23 11:19:58;;;;;;;0.60;0.60;;;11.90;99.90;;;;;;5049997;28;20568;-81
2021/04/23 11:22:26;;;;;;;0.60;0.60;;;12.10;99.90;;;;;;5049630;28;20216;-81
2021/04/23 11:25:04;;;;;;;0.60;0.60;;;12.30;99.90;;;;;;5050044;28;20219;-81
2021/04/23 11:27:32;;;;;;;0.60;0.60;;;12.10;99.90;;;;;;5049060;28;20228;-80
2021/04/23 11:30:08;;;;;;;0.60;0.60;;;11.90;99.90;;;;;;5049779;28;20930;-81
2021/04/23 11:32:36;;;;;;;0.50;0.50;;;11.70;99.90;;;;;;5049703;28;20208;-81
2021/04/23 11:35:19;;;;;;;0.60;0.60;;;11.50;99.90;;;;;;5049686;28;20834;-80
2021/04/23 11:37:51;;;;;;;0.60;0.60;;;12.00;99.90;;;;;;5052630;28;20228;-80
2021/04/23 11:40:21;;;;;;;0.60;0.60;;;12.10;99.90;;;;;;5053163;28;20273;-81
2021/04/23 11:42:49;;;;;;;0.60;0.60;;;12.40;99.90;;;;;;5053222;28;20219;-84
2021/04/23 11:45:17;;;;;;;0.60;0.60;;;12.60;99.90;;;;;;5053681;28;20250;-82
2021/04/23 11:47:45;;;;;;;0.60;0.60;;;12.50;99.90;;;;;;5052599;28;20294;-81
2021/04/23 11:50:16;;;;;;;0.60;0.60;;;12.60;99.90;;;;;;5053003;28;20207;-80
2021/04/23 11:52:44;;;;;;;0.60;0.60;;;12.70;99.90;;;;;;5052636;28;20200;-80
2021/04/23 11:55:15;;;;;;;0.60;0.60;;;12.90;99.90;;;;;;5053007;28;20200;-81
2021/04/23 11:57:42;;;;;;;0.60;0.60;;;13.10;99.90;;;;;;5052208;28;20224;-80
2021/04/23 12:00:12;;;;;;;0.50;0.50;;;13.10;99.90;;;;;;5052812;28;20258;-80
2021/04/23 12:02:39;;;;;;;0.60;0.60;;;13.30;99.90;;;;;;5054484;28;20215;-80
2021/04/23 12:05:07;;;;;;;0.60;0.60;;;13.30;99.90;;;;;;5047567;28;20211;-80
2021/04/23 12:07:45;;;;;;;0.60;0.60;;;13.50;99.90;;;;;;5048897;28;20211;-80
2021/04/23 12:10:15;;;;;;;0.60;0.60;;;13.20;99.90;;;;;;5052376;28;20208;-84
2021/04/23 12:12:43;;;;;;;0.60;0.60;;;13.20;99.90;;;;;;5046285;28;20212;-80
2021/04/23 12:15:22;;;;;;;0.60;0.60;;;13.40;99.90;;;;;;5045546;28;20204;-80
2021/04/23 12:17:48;;;;;;;0.57;0.57;;;13.70;99.90;;;;;;5050696;28;20281;-80
2021/04/23 12:20:19;;;;;;;0.60;0.60;;;13.50;99.90;;;;;;5049088;28;20207;-78
2021/04/23 12:22:46;;;;;;;0.60;0.60;;;13.60;99.90;;;;;;5047595;28;20671;-80
2021/04/23 12:25:34;;;;;;;0.50;0.50;;;13.50;99.90;;;;;;5049039;28;20227;-78
2021/04/23 12:28:25;;;;;;;0.60;0.60;;;13.70;99.90;;;;;;5049454;28;20287;-82
2021/04/23 12:30:54;;;;;;;0.60;0.60;;;14.20;99.90;;;;;;5048950;28;20682;-82
2021/04/23 12:33:21;;;;;;;0.60;0.60;;;13.80;99.90;;;;;;5048158;28;20359;-82
2021/04/23 12:35:50;;;;;;;0.60;0.60;;;13.70;99.90;;;;;;5052767;28;20204;-84
2021/04/23 12:38:34;;;;;;;0.60;0.60;;;13.80;99.90;;;;;;5052209;28;20261;-82
2021/04/23 12:41:00;;;;;;;0.60;0.60;;;13.50;99.90;;;;;;5052557;28;20215;-80
2021/04/23 12:43:26;;;;;;;0.60;0.60;;;14.30;99.90;;;;;;5051360;28;20212;-80
2021/04/23 12:45:54;;;;;;;0.60;0.60;;;14.40;99.90;;;;;;5051869;28;20211;-81
2021/04/23 12:48:22;;;;;;;0.60;0.60;;;13.90;99.20;;;;;;5051465;28;20265;-79
2021/04/23 12:50:51;;;;;;;0.60;0.60;;;14.10;99.90;;;;;;5051867;28;20685;-78
2021/04/23 12:53:20;;;;;;;0.55;0.55;;;13.30;99.90;;;;;;5051663;28;20231;-79
2021/04/23 12:55:47;;;;;;;0.60;0.60;;;13.20;99.90;;;;;;5052097;28;20261;-78
2021/04/23 12:58:14;;;;;;;0.60;0.60;;;13.60;99.90;;;;;;5051071;28;20644;-83
2021/04/23 13:00:42;;;;;;;0.60;0.60;;;13.70;99.90;;;;;;5057519;28;20204;-80